createdAt,value
2019-05-25T00:01:48.388Z,9.70
2019-05-25T00:04:18.592Z,8.53
2019-05-25T00:06:48.841Z,11.60
2019-05-25T00:09:19.205Z,11.30
2019-05-25T00:11:49.517Z,9.40
2019-05-25T00:14:19.718Z,11.10
2019-05-25T00:16:50.039Z,9.53
2019-05-25T00:19:20.317Z,11.60
2019-05-25T00:21:50.774Z,11.77
2019-05-25T00:24:21.095Z,13.60
2019-05-25T00:26:51.410Z,11.53
2019-05-25T00:29:21.756Z,8.47
2019-05-25T00:31:52.093Z,14.17
2019-05-25T00:34:22.334Z,9.60
2019-05-25T00:36:52.641Z,12.23
2019-05-25T00:39:22.949Z,13.53
2019-05-25T00:41:53.354Z,10.73
2019-05-25T00:44:23.612Z,12.90
2019-05-25T00:46:53.904Z,9.90
2019-05-25T00:49:26.241Z,12.83
2019-05-25T00:51:56.580Z,9.70
2019-05-25T00:54:28.173Z,10.30
2019-05-25T00:56:58.626Z,8.57
2019-05-25T00:59:28.836Z,12.37
2019-05-25T01:01:59.162Z,11.80
2019-05-25T01:04:29.482Z,11.10
2019-05-25T01:06:59.776Z,12.07
2019-05-25T01:09:30.103Z,13.23
2019-05-25T01:12:00.583Z,11.27
2019-05-25T01:14:30.864Z,11.10
2019-05-25T01:17:01.146Z,15.03
2019-05-25T01:19:31.577Z,10.90
2019-05-25T01:22:01.856Z,11.60
2019-05-25T01:24:43.811Z,16.57
2019-05-25T01:27:04.081Z,14.53
2019-05-25T01:29:34.405Z,13.30
2019-05-25T01:32:04.738Z,10.20
2019-05-25T01:34:35.015Z,11.13
2019-05-25T01:37:05.316Z,13.33
2019-05-25T01:39:35.514Z,9.57
2019-05-25T01:42:05.726Z,12.73
2019-05-25T01:44:36.081Z,10.83
2019-05-25T01:47:06.305Z,9.00
2019-05-25T01:49:36.550Z,14.57
2019-05-25T01:52:07.035Z,10.03
2019-05-25T01:54:37.385Z,9.87
2019-05-25T01:57:07.622Z,10.77
2019-05-25T01:59:37.944Z,10.20
2019-05-25T02:02:08.230Z,9.47
2019-05-25T02:04:38.521Z,8.80
2019-05-25T02:07:08.832Z,12.67
2019-05-25T02:09:39.026Z,10.27
2019-05-25T02:12:09.261Z,11.03
2019-05-25T02:14:39.459Z,11.17
2019-05-25T02:17:09.729Z,12.40
2019-05-25T02:19:40.046Z,13.27
2019-05-25T02:22:10.221Z,9.93
2019-05-25T02:24:40.448Z,10.13
2019-05-25T02:27:10.683Z,12.37
2019-05-25T02:29:40.933Z,12.47
2019-05-25T02:32:11.189Z,14.53
2019-05-25T02:34:41.430Z,11.37
2019-05-25T02:37:11.718Z,10.43
2019-05-25T02:39:42.014Z,12.87
2019-05-25T02:42:12.225Z,12.53
2019-05-25T02:44:42.517Z,12.93
2019-05-25T02:47:12.853Z,12.43
2019-05-25T02:49:43.125Z,13.33
2019-05-25T02:52:13.429Z,12.67
2019-05-25T02:54:43.806Z,11.47
2019-05-25T02:57:14.062Z,12.83
2019-05-25T02:59:44.375Z,12.47
2019-05-25T03:02:14.588Z,11.90
2019-05-25T03:04:44.793Z,14.23
2019-05-25T03:07:15.159Z,11.07
2019-05-25T03:09:47.579Z,13.53
2019-05-25T03:12:18.257Z,11.13
2019-05-25T03:14:48.571Z,13.63
2019-05-25T03:17:18.869Z,13.87
2019-05-25T03:19:49.181Z,12.20
2019-05-25T03:22:19.461Z,10.90
2019-05-25T03:24:49.770Z,14.37
2019-05-25T03:27:20.080Z,10.90
2019-05-25T03:29:50.393Z,12.27
2019-05-25T03:32:20.690Z,13.03
2019-05-25T03:34:50.957Z,14.63
2019-05-25T03:37:21.228Z,12.83
2019-05-25T03:39:51.519Z,11.73
2019-05-25T03:42:21.804Z,16.23
2019-05-25T03:44:52.130Z,12.63
2019-05-25T03:47:22.325Z,13.40
2019-05-25T03:49:52.724Z,14.33
2019-05-25T03:52:22.912Z,13.77
2019-05-25T03:54:53.229Z,14.70
2019-05-25T03:57:23.503Z,12.77
2019-05-25T03:59:53.809Z,10.57
2019-05-25T04:02:24.097Z,12.47
2019-05-25T04:04:54.486Z,10.63
2019-05-25T04:07:24.701Z,11.27
2019-05-25T04:09:55.051Z,9.90
2019-05-25T04:12:25.341Z,11.67
2019-05-25T04:14:55.656Z,9.97
2019-05-25T04:17:25.943Z,8.53
2019-05-25T04:19:56.237Z,11.20
2019-05-25T04:22:26.637Z,10.13
2019-05-25T04:24:56.910Z,11.60
2019-05-25T04:27:27.261Z,10.27
2019-05-25T04:29:57.570Z,10.37
2019-05-25T04:32:27.915Z,8.97
2019-05-25T04:34:58.235Z,9.67
2019-05-25T04:37:28.585Z,13.43
2019-05-25T04:39:58.878Z,10.53
2019-05-25T04:42:29.200Z,10.03
2019-05-25T04:44:59.515Z,10.93
2019-05-25T04:47:29.713Z,13.57
2019-05-25T04:49:59.952Z,9.60
2019-05-25T04:52:30.298Z,10.10
2019-05-25T04:55:00.611Z,12.57
2019-05-25T04:57:30.885Z,15.57
2019-05-25T05:00:01.228Z,12.20
2019-05-25T05:02:31.450Z,12.53
2019-05-25T05:05:01.761Z,24.80
2019-05-25T05:07:32.109Z,17.40
2019-05-25T05:10:03.391Z,11.77
2019-05-25T05:12:33.862Z,15.50
2019-05-25T05:15:04.811Z,11.17
2019-05-25T05:17:35.012Z,12.67
2019-05-25T05:20:06.767Z,15.03
2019-05-25T05:22:36.985Z,14.57
2019-05-25T05:25:08.528Z,13.47
2019-05-25T05:27:39.443Z,11.07
2019-05-25T05:30:09.837Z,12.80
2019-05-25T05:32:40.103Z,12.80
2019-05-25T05:35:10.708Z,10.97
2019-05-25T05:37:42.185Z,16.13
2019-05-25T05:40:13.197Z,16.17
2019-05-25T05:42:45.480Z,18.70
2019-05-25T05:45:16.013Z,12.63
2019-05-25T05:47:48.221Z,14.07
2019-05-25T05:50:18.575Z,13.27
2019-05-25T05:52:50.907Z,22.03
2019-05-25T05:55:24.907Z,18.97
2019-05-25T05:57:55.150Z,15.67
2019-05-25T06:00:25.595Z,12.13
2019-05-25T06:02:55.854Z,12.50
2019-05-25T06:05:26.055Z,13.43
2019-05-25T06:07:56.440Z,16.90
2019-05-25T06:10:26.649Z,12.60
2019-05-25T06:12:56.999Z,14.73
2019-05-25T06:15:27.244Z,16.00
2019-05-25T06:17:57.562Z,13.90
2019-05-25T06:20:27.831Z,12.83
2019-05-25T06:22:58.167Z,11.87
2019-05-25T06:25:28.439Z,12.63
2019-05-25T06:27:58.642Z,14.13
2019-05-25T06:30:29.046Z,15.90
2019-05-25T06:32:59.432Z,15.27
2019-05-25T06:35:29.622Z,14.07
2019-05-25T06:37:59.972Z,12.53
2019-05-25T06:40:30.263Z,11.73
2019-05-25T06:43:00.626Z,12.60
2019-05-25T06:45:30.958Z,15.80
2019-05-25T06:48:01.237Z,12.47
2019-05-25T06:50:31.547Z,12.63
2019-05-25T06:53:01.830Z,17.00
2019-05-25T06:55:32.122Z,12.97
2019-05-25T06:58:02.611Z,13.40
2019-05-25T07:00:33.019Z,15.13
2019-05-25T07:03:04.524Z,13.33
2019-05-25T07:05:36.007Z,15.93
2019-05-25T07:08:07.017Z,9.33
2019-05-25T07:10:37.776Z,10.07
2019-05-25T07:13:08.163Z,13.67
2019-05-25T07:15:38.472Z,17.27
2019-05-25T07:18:08.740Z,16.23
2019-05-25T07:20:45.062Z,16.87
2019-05-25T07:23:15.145Z,10.43
2019-05-25T07:25:45.363Z,13.77
2019-05-25T07:28:15.566Z,12.40
2019-05-25T07:30:46.724Z,11.07
2019-05-25T07:33:17.072Z,9.83
2019-05-25T07:35:47.322Z,18.13
2019-05-25T07:38:17.524Z,11.10
2019-05-25T07:40:47.855Z,12.43
2019-05-25T07:43:18.195Z,10.60
2019-05-25T07:45:48.484Z,11.70
2019-05-25T07:48:18.752Z,8.43
2019-05-25T07:50:48.989Z,11.17
2019-05-25T07:53:19.329Z,21.00
2019-05-25T07:55:49.640Z,17.55
2019-05-25T07:58:19.947Z,10.97
2019-05-25T08:00:50.285Z,15.40
2019-05-25T08:03:20.581Z,17.77
2019-05-25T08:05:50.921Z,18.00
2019-05-25T08:08:21.281Z,24.10
2019-05-25T08:10:51.597Z,29.70
2019-05-25T08:13:21.841Z,15.13
2019-05-25T08:15:52.088Z,16.60
2019-05-25T08:18:22.372Z,11.70
2019-05-25T08:20:52.651Z,11.93
2019-05-25T08:23:22.951Z,10.50
2019-05-25T08:25:53.269Z,11.05
2019-05-25T08:28:32.368Z,11.38
2019-05-25T08:30:55.577Z,12.10
2019-05-25T08:33:25.762Z,10.03
2019-05-25T08:35:56.023Z,9.73
2019-05-25T08:38:26.525Z,10.05
2019-05-25T08:40:56.872Z,10.32
2019-05-25T08:43:27.206Z,9.83
2019-05-25T08:45:57.520Z,11.70
2019-05-25T08:48:27.762Z,9.53
2019-05-25T08:50:59.717Z,11.60
2019-05-25T08:53:40.712Z,10.00
2019-05-25T08:56:02.203Z,13.03
2019-05-25T08:58:47.292Z,11.23
2019-05-25T09:01:04.495Z,9.73
2019-05-25T09:03:34.786Z,10.70
2019-05-25T09:06:05.238Z,13.00
2019-05-25T09:08:35.575Z,12.47
2019-05-25T09:11:05.818Z,10.40
2019-05-25T09:13:36.253Z,10.47
2019-05-25T09:16:06.568Z,8.67
2019-05-25T09:18:40.010Z,8.80
2019-05-25T09:21:10.336Z,9.90
2019-05-25T09:23:40.522Z,11.27
2019-05-25T09:26:13.339Z,10.67
2019-05-25T09:28:42.834Z,11.90
2019-05-25T09:31:13.136Z,14.03
2019-05-25T09:33:43.369Z,14.43
2019-05-25T09:36:13.641Z,13.13
2019-05-25T09:38:43.927Z,10.13
2019-05-25T09:41:14.279Z,11.83
2019-05-25T09:43:44.477Z,9.37
2019-05-25T09:46:14.760Z,8.50
2019-05-25T09:48:45.079Z,9.77
2019-05-25T09:51:15.969Z,11.73
2019-05-25T09:53:46.404Z,11.37
2019-05-25T09:56:16.799Z,9.50
2019-05-25T09:58:47.054Z,8.30
2019-05-25T10:01:17.358Z,8.97
2019-05-25T10:03:47.652Z,17.30
2019-05-25T10:06:18.085Z,10.60
2019-05-25T10:08:48.475Z,10.07
2019-05-25T10:11:18.853Z,8.70
2019-05-25T10:13:49.139Z,8.60
2019-05-25T10:16:19.577Z,9.30
2019-05-25T10:18:49.863Z,10.90
2019-05-25T10:21:20.182Z,10.33
2019-05-25T10:23:50.405Z,7.53
2019-05-25T10:26:23.006Z,9.00
2019-05-25T10:28:52.739Z,9.63
2019-05-25T10:31:23.012Z,11.40
2019-05-25T10:33:53.301Z,8.17
2019-05-25T10:36:23.639Z,8.00
2019-05-25T10:38:53.944Z,9.40
2019-05-25T10:41:24.262Z,8.47
2019-05-25T10:43:54.553Z,10.10
2019-05-25T10:46:24.885Z,7.70
2019-05-25T10:48:55.169Z,8.07
2019-05-25T10:51:25.434Z,8.53
2019-05-25T10:53:55.767Z,10.17
2019-05-25T10:56:26.142Z,8.17
2019-05-25T10:58:56.539Z,15.57
2019-05-25T11:01:26.865Z,9.13
2019-05-25T11:03:57.216Z,13.40
2019-05-25T11:06:27.612Z,10.47
2019-05-25T11:08:57.889Z,16.50
2019-05-25T11:11:28.262Z,8.07
2019-05-25T11:13:58.622Z,14.20
2019-05-25T11:16:28.935Z,16.60
2019-05-25T11:18:59.251Z,12.07
2019-05-25T11:21:29.530Z,9.97
2019-05-25T11:24:03.226Z,12.10
2019-05-25T11:26:33.609Z,5.23
2019-05-25T11:29:03.993Z,9.30
2019-05-25T11:31:34.285Z,4.63
2019-05-25T11:34:04.774Z,3.60
2019-05-25T11:36:35.130Z,2.80
2019-05-25T11:39:08.244Z,5.03
2019-05-25T11:41:38.534Z,4.47
2019-05-25T11:44:08.841Z,6.33
2019-05-25T11:46:39.158Z,3.33
2019-05-25T11:49:22.057Z,4.33
2019-05-25T11:51:41.460Z,5.08
2019-05-25T11:54:11.811Z,6.43
2019-05-25T11:56:42.217Z,6.07
2019-05-25T11:59:12.506Z,5.00
2019-05-25T12:01:42.731Z,6.30
2019-05-25T12:04:13.075Z,6.73
2019-05-25T12:06:44.176Z,6.83
2019-05-25T12:09:14.683Z,6.73
2019-05-25T12:11:45.000Z,9.50
2019-05-25T12:14:15.289Z,6.65
2019-05-25T12:16:45.594Z,8.23
2019-05-25T12:19:15.897Z,8.88
2019-05-25T12:21:46.160Z,9.13
2019-05-25T12:24:16.540Z,7.47
2019-05-25T12:26:46.937Z,8.55
2019-05-25T12:29:17.370Z,7.70
2019-05-25T12:31:47.699Z,7.72
2019-05-25T12:34:18.050Z,6.55
2019-05-25T12:36:48.374Z,5.70
2019-05-25T12:39:18.706Z,6.15
2019-05-25T12:41:49.071Z,6.60
2019-05-25T12:44:19.341Z,10.00
2019-05-25T12:46:49.728Z,8.70
2019-05-25T12:49:20.070Z,8.63
2019-05-25T12:51:50.373Z,10.38
2019-05-25T12:54:20.771Z,7.97
2019-05-25T12:56:51.103Z,12.47
2019-05-25T12:59:21.455Z,9.60
2019-05-25T13:01:51.814Z,9.30
2019-05-25T13:04:22.254Z,6.83
2019-05-25T13:06:52.664Z,6.67
2019-05-25T13:09:23.044Z,7.63
2019-05-25T13:11:53.349Z,7.25
2019-05-25T13:14:23.693Z,5.87
2019-05-25T13:16:54.029Z,8.43
2019-05-25T13:19:24.432Z,5.03
2019-05-25T13:21:54.797Z,6.08
2019-05-25T13:24:26.752Z,8.48
2019-05-25T13:26:57.201Z,5.50
2019-05-25T13:29:27.589Z,6.00
2019-05-25T13:31:57.829Z,6.03
2019-05-25T13:34:28.105Z,6.13
2019-05-25T13:37:01.547Z,8.03
2019-05-25T13:39:30.383Z,6.70
2019-05-25T13:42:00.741Z,5.57
2019-05-25T13:44:31.014Z,6.73
2019-05-25T13:47:01.267Z,7.35
2019-05-25T13:49:31.533Z,8.70
2019-05-25T13:52:01.856Z,8.90
2019-05-25T13:54:32.169Z,14.90
2019-05-25T13:57:02.448Z,9.03
2019-05-25T13:59:32.732Z,5.93
2019-05-25T14:02:02.971Z,6.97
2019-05-25T14:04:33.261Z,8.33
2019-05-25T14:07:06.297Z,5.80
2019-05-25T14:09:36.510Z,5.40
2019-05-25T14:12:06.776Z,7.23
2019-05-25T14:14:37.063Z,14.17
2019-05-25T14:17:07.344Z,23.40
2019-05-25T14:19:41.279Z,21.80
2019-05-25T14:22:09.545Z,12.33
2019-05-25T14:24:39.845Z,14.07
2019-05-25T14:27:10.119Z,11.57
2019-05-25T14:29:40.402Z,9.20
2019-05-25T14:32:10.685Z,9.83
2019-05-25T14:34:41.030Z,10.40
2019-05-25T14:37:12.044Z,9.63
2019-05-25T14:39:42.342Z,13.93
2019-05-25T14:42:12.663Z,12.33
2019-05-25T14:44:42.965Z,12.50
2019-05-25T14:47:13.267Z,11.00
2019-05-25T14:49:43.555Z,20.27
2019-05-25T14:52:13.930Z,20.83
2019-05-25T14:54:44.194Z,18.07
2019-05-25T14:57:14.922Z,16.73
2019-05-25T14:59:45.245Z,20.70
2019-05-25T15:02:15.496Z,13.40
2019-05-25T15:04:45.786Z,16.77
2019-05-25T15:07:16.126Z,16.90
2019-05-25T15:09:46.499Z,18.17
2019-05-25T15:12:16.819Z,10.47
2019-05-25T15:14:47.129Z,13.63
2019-05-25T15:17:17.358Z,9.47
2019-05-25T15:19:47.681Z,9.30
2019-05-25T15:22:18.189Z,11.63
2019-05-25T15:24:48.462Z,9.57
2019-05-25T15:27:19.129Z,9.17
2019-05-25T15:29:49.388Z,7.00
2019-05-25T15:32:20.716Z,7.87
2019-05-25T15:34:51.266Z,7.83
2019-05-25T15:37:21.567Z,9.00
2019-05-25T15:39:51.861Z,8.30
2019-05-25T15:42:22.197Z,4.90
2019-05-25T15:44:52.485Z,4.43
2019-05-25T15:47:22.769Z,4.57
2019-05-25T15:49:53.139Z,4.53
2019-05-25T15:52:23.445Z,5.47
2019-05-25T15:54:53.662Z,6.23
2019-05-25T15:57:23.935Z,6.23
2019-05-25T15:59:54.250Z,4.97
2019-05-25T16:02:36.373Z,6.93
2019-05-25T16:04:56.559Z,6.87
2019-05-25T16:07:26.822Z,8.50
2019-05-25T16:09:57.113Z,7.50
2019-05-25T16:12:27.403Z,9.83
2019-05-25T16:14:59.373Z,7.50
2019-05-25T16:17:29.605Z,7.07
2019-05-25T16:20:00.053Z,6.97
2019-05-25T16:22:30.287Z,5.73
2019-05-25T16:25:00.580Z,7.13
2019-05-25T16:27:30.837Z,6.67
2019-05-25T16:30:01.122Z,6.23
2019-05-25T16:32:31.417Z,5.47
2019-05-25T16:35:01.710Z,4.57
2019-05-25T16:37:32.218Z,4.37
2019-05-25T16:40:02.505Z,3.80
2019-05-25T16:42:32.858Z,5.33
2019-05-25T16:45:05.795Z,3.97
2019-05-25T16:47:35.198Z,5.00
2019-05-25T16:50:05.862Z,2.40
2019-05-25T16:52:36.066Z,2.37
2019-05-25T16:55:06.505Z,3.63
2019-05-25T16:57:36.828Z,4.10
2019-05-25T17:00:07.459Z,2.87
2019-05-25T17:02:37.807Z,3.50
2019-05-25T17:05:08.509Z,4.23
2019-05-25T17:07:38.737Z,5.17
2019-05-25T17:10:09.209Z,4.57
2019-05-25T17:12:39.553Z,4.87
2019-05-25T17:15:09.971Z,4.50
2019-05-25T17:17:40.278Z,5.40
2019-05-25T17:20:10.737Z,6.97
2019-05-25T17:22:41.039Z,4.40
2019-05-25T17:25:11.645Z,7.33
2019-05-25T17:27:41.923Z,4.77
2019-05-25T17:30:14.184Z,7.80
2019-05-25T17:32:44.453Z,7.40
2019-05-25T17:35:15.072Z,5.70
2019-05-25T17:37:45.394Z,6.67
2019-05-25T17:40:15.924Z,6.80
2019-05-25T17:42:46.293Z,4.30
2019-05-25T17:45:16.633Z,5.97
2019-05-25T17:47:46.935Z,4.40
2019-05-25T17:50:17.272Z,5.97
2019-05-25T17:52:47.611Z,3.87
2019-05-25T17:55:17.967Z,3.50
2019-05-25T17:57:48.274Z,3.57
2019-05-25T18:00:35.420Z,4.00
2019-05-25T18:03:06.185Z,5.20
2019-05-25T18:05:36.499Z,3.87
2019-05-25T18:08:07.080Z,5.23
2019-05-25T18:10:52.072Z,4.20
2019-05-25T18:13:09.507Z,4.57
2019-05-25T18:15:39.882Z,3.47
2019-05-25T18:18:10.278Z,3.50
2019-05-25T18:20:40.616Z,4.07
2019-05-25T18:23:10.913Z,5.97
2019-05-25T18:25:41.263Z,5.23
2019-05-25T18:28:11.782Z,5.93
2019-05-25T18:30:42.210Z,5.27
2019-05-25T18:33:12.556Z,6.70
2019-05-25T18:35:42.917Z,6.77
2019-05-25T18:38:13.199Z,7.47
2019-05-25T18:40:43.536Z,6.03
2019-05-25T18:43:13.868Z,8.77
2019-05-25T18:45:44.222Z,4.90
2019-05-25T18:48:14.499Z,4.67
2019-05-25T18:50:44.958Z,10.03
2019-05-25T18:53:15.267Z,5.77
2019-05-25T18:55:45.665Z,5.77
2019-05-25T18:58:15.973Z,5.57
2019-05-25T19:00:46.356Z,11.07
2019-05-25T19:03:16.653Z,8.70
2019-05-25T19:05:46.901Z,10.90
2019-05-25T19:08:17.230Z,13.40
2019-05-25T19:10:47.676Z,12.17
2019-05-25T19:13:17.917Z,14.77
2019-05-25T19:15:48.219Z,9.80
2019-05-25T19:18:18.556Z,8.43
2019-05-25T19:20:49.042Z,7.27
2019-05-25T19:23:19.402Z,8.53
2019-05-25T19:25:49.700Z,5.73
2019-05-25T19:28:20.004Z,6.50
2019-05-25T19:30:50.359Z,7.77
2019-05-25T19:33:20.641Z,9.20
2019-05-25T19:35:54.040Z,8.47
2019-05-25T19:38:22.994Z,8.33
2019-05-25T19:40:53.310Z,10.60
2019-05-25T19:43:23.634Z,9.23
2019-05-25T19:45:53.968Z,8.30
2019-05-25T19:48:24.204Z,11.90
2019-05-25T19:50:56.289Z,12.17
2019-05-25T19:53:26.541Z,10.77
2019-05-25T19:55:56.860Z,9.70
2019-05-25T19:58:27.251Z,7.63
2019-05-25T20:00:57.594Z,10.33
2019-05-25T20:03:27.944Z,9.93
2019-05-25T20:05:58.217Z,6.77
2019-05-25T20:08:28.498Z,5.90
2019-05-25T20:10:58.790Z,7.53
2019-05-25T20:13:29.069Z,6.53
2019-05-25T20:15:59.261Z,8.53
2019-05-25T20:18:29.564Z,9.97
2019-05-25T20:20:59.807Z,11.57
2019-05-25T20:23:30.037Z,6.50
2019-05-25T20:26:00.309Z,10.70
2019-05-25T20:28:30.608Z,6.07
2019-05-25T20:31:00.825Z,6.33
2019-05-25T20:33:34.626Z,9.60
2019-05-25T20:36:03.069Z,6.00
2019-05-25T20:38:33.442Z,5.23
2019-05-25T20:41:03.642Z,5.50
2019-05-25T20:43:33.958Z,5.93
2019-05-25T20:46:04.161Z,6.33
2019-05-25T20:48:34.449Z,10.90
2019-05-25T20:51:04.779Z,4.30
2019-05-25T20:53:35.113Z,4.53
2019-05-25T20:56:05.422Z,7.13
2019-05-25T20:58:35.676Z,5.57
2019-05-25T21:01:05.967Z,8.73
2019-05-25T21:03:36.268Z,10.83
2019-05-25T21:06:06.577Z,11.90
2019-05-25T21:08:36.896Z,11.43
2019-05-25T21:11:07.218Z,10.37
2019-05-25T21:13:37.550Z,11.43
2019-05-25T21:16:07.834Z,7.97
2019-05-25T21:18:38.141Z,9.73
2019-05-25T21:21:08.429Z,7.33
2019-05-25T21:23:38.767Z,7.20
2019-05-25T21:26:09.136Z,5.30
2019-05-25T21:28:39.355Z,5.93
2019-05-25T21:31:09.582Z,5.33
2019-05-25T21:33:39.878Z,6.87
2019-05-25T21:36:10.172Z,7.37
2019-05-25T21:38:40.517Z,6.90
2019-05-25T21:41:10.749Z,4.97
2019-05-25T21:43:41.063Z,6.97
2019-05-25T21:46:11.374Z,10.33
2019-05-25T21:48:41.839Z,13.17
2019-05-25T21:51:12.103Z,14.50
2019-05-25T21:53:42.379Z,8.93
2019-05-25T21:56:12.692Z,4.50
2019-05-25T21:58:42.920Z,4.40
2019-05-25T22:01:13.721Z,6.53
2019-05-25T22:03:43.949Z,4.90
2019-05-25T22:06:23.693Z,5.77
2019-05-25T22:08:46.157Z,6.23
2019-05-25T22:11:16.493Z,4.20
2019-05-25T22:13:46.793Z,5.87
2019-05-25T22:16:17.102Z,5.63
2019-05-25T22:18:47.413Z,5.03
2019-05-25T22:21:17.697Z,5.07
2019-05-25T22:23:47.981Z,4.47
2019-05-25T22:26:18.252Z,6.03
2019-05-25T22:28:48.536Z,5.73
2019-05-25T22:31:18.820Z,5.12
2019-05-25T22:33:49.154Z,4.87
2019-05-25T22:36:19.469Z,8.17
2019-05-25T22:38:49.760Z,8.50
2019-05-25T22:41:20.272Z,6.10
2019-05-25T22:43:50.496Z,9.13
2019-05-25T22:46:20.842Z,4.87
2019-05-25T22:48:51.223Z,4.83
2019-05-25T22:51:21.564Z,5.83
2019-05-25T22:53:51.897Z,5.37
2019-05-25T22:56:22.298Z,5.23
2019-05-25T22:58:52.605Z,4.87
2019-05-25T23:01:22.955Z,4.53
2019-05-25T23:03:53.222Z,5.30
2019-05-25T23:06:23.576Z,5.93
2019-05-25T23:08:53.841Z,8.43
2019-05-25T23:11:24.090Z,8.87
2019-05-25T23:13:54.352Z,8.60
2019-05-25T23:16:24.646Z,7.03
2019-05-25T23:18:55.049Z,6.40
2019-05-25T23:21:25.327Z,6.43
2019-05-25T23:23:55.562Z,7.00
2019-05-25T23:26:25.760Z,6.40
2019-05-25T23:28:56.025Z,9.37
2019-05-25T23:31:26.290Z,7.20
2019-05-25T23:33:56.610Z,7.13
2019-05-25T23:36:26.797Z,7.43
2019-05-25T23:38:57.058Z,7.93
2019-05-25T23:41:27.337Z,7.57
2019-05-25T23:43:59.784Z,7.73
2019-05-25T23:46:29.512Z,7.70
2019-05-25T23:48:59.680Z,7.50
2019-05-25T23:51:30.004Z,8.40
2019-05-25T23:54:00.289Z,8.83
2019-05-25T23:56:30.621Z,6.10
2019-05-25T23:59:00.931Z,6.33
